sim
Sign-in with your pilot id or email,
or register
Callsign
Passwort

Schedule Details

Flight Number: DLH1288 (1)
Departure: Frankfurt Airport (EDDF) at 09:15
Arrival: Thessaloniki International Airport (LGTS) at 11:40
Route: Lufthansa Passenger Schedule. Enter filed route here before submitting Pirep.

Weather Information
Getting current METAR information for EDDF 211550Z 20006KT 9999 FEW028 11/06 Q1027 NOSIG
Getting current METAR information for LGTS 211550Z 35005KT CAVOK 14/00 Q1021 NOSIG

Schedule Frequency

Route Map